Time;durP1;ratioP1;P1;durP2;ratioP2;P2;SDS_P1;SDS_P2;PMS_P1;PMS_P2;Temp;Humidity;BMP_temperature;BMP_pressure;BME280_temperature;BME280_humidity;BME280_pressure;Samples;Min_cycle;Max_cycle;Signal;HPM_P1;HPM_P2
2021/05/04 00:01:10;;;;;;;;;;;19.00;58.70;;;;;;5032584;28;19913;-75
2021/05/04 00:03:36;;;;;;;;;;;19.00;58.70;;;;;;5052112;28;19913;-75
2021/05/04 00:06:01;;;;;;;;;;;19.00;58.70;;;;;;5035554;28;19928;-75
2021/05/04 00:08:27;;;;;;;;;;;19.00;58.70;;;;;;5048739;28;19928;-74
2021/05/04 00:10:52;;;;;;;;;;;19.00;58.70;;;;;;5034999;28;19974;-75
2021/05/04 00:13:18;;;;;;;;;;;19.00;58.70;;;;;;5050009;28;20437;-75
2021/05/04 00:15:43;;;;;;;;;;;19.00;58.70;;;;;;5034145;28;19917;-75
2021/05/04 00:18:09;;;;;;;;;;;19.00;58.70;;;;;;5032692;28;19924;-75
2021/05/04 00:20:34;;;;;;;;;;;19.00;58.70;;;;;;5051450;28;19963;-74
2021/05/04 00:23:00;;;;;;;;;;;19.00;58.70;;;;;;5024768;28;20012;-75
2021/05/04 00:25:25;;;;;;;;;;;19.00;58.70;;;;;;5052102;28;19958;-74
2021/05/04 00:27:51;;;;;;;;;;;19.00;58.70;;;;;;5033848;28;19932;-75
2021/05/04 00:30:16;;;;;;;;;;;19.00;58.70;;;;;;5029795;28;20362;-75
2021/05/04 00:32:42;;;;;;;;;;;19.00;58.70;;;;;;5051751;28;19913;-75
2021/05/04 00:35:08;;;;;;;;;;;19.00;58.70;;;;;;5052085;28;19912;-75
2021/05/04 00:37:33;;;;;;;;;;;19.00;58.70;;;;;;5045625;28;19960;-75
2021/05/04 00:39:59;;;;;;;;;;;18.90;58.70;;;;;;5050871;28;20313;-74
2021/05/04 00:42:25;;;;;;;;;;;19.00;58.70;;;;;;5050184;28;19917;-75
2021/05/04 00:44:51;;;;;;;;;;;19.00;58.70;;;;;;5048513;28;19947;-76
2021/05/04 00:47:17;;;;;;;;;;;18.90;58.70;;;;;;5049293;28;19924;-76
2021/05/04 00:49:42;;;;;;;;;;;19.00;58.70;;;;;;5032747;28;19913;-75
2021/05/04 00:52:08;;;;;;;;;;;18.90;58.70;;;;;;5051841;28;20358;-75
2021/05/04 00:54:33;;;;;;;;;;;18.90;58.70;;;;;;5025575;28;20285;-75
2021/05/04 00:56:59;;;;;;;;;;;18.90;58.70;;;;;;5022917;28;19924;-75
2021/05/04 00:59:25;;;;;;;;;;;18.90;58.70;;;;;;5033112;28;19923;-76
2021/05/04 01:01:54;;;;;;;;;;;18.90;58.70;;;;;;5048999;28;19912;-75
2021/05/04 01:04:20;;;;;;;;;;;19.00;58.70;;;;;;5051355;28;19913;-75
2021/05/04 01:06:46;;;;;;;;;;;18.90;58.70;;;;;;5051451;28;20282;-75
2021/05/04 01:09:13;;;;;;;;;;;18.90;58.70;;;;;;5047364;28;19935;-75
2021/05/04 01:11:39;;;;;;;;;;;18.90;58.70;;;;;;5036912;28;20361;-75
2021/05/04 01:14:04;;;;;;;;;;;18.90;58.70;;;;;;5032381;28;19986;-75
2021/05/04 01:16:30;;;;;;;;;;;18.90;58.70;;;;;;5051663;28;20377;-75
2021/05/04 01:18:55;;;;;;;;;;;18.90;58.70;;;;;;5049220;28;20050;-75
2021/05/04 01:21:21;;;;;;;;;;;18.90;58.70;;;;;;5036655;28;19913;-75
2021/05/04 01:23:46;;;;;;;;;;;18.90;58.70;;;;;;5032515;28;19912;-75
2021/05/04 01:26:12;;;;;;;;;;;18.90;58.70;;;;;;5052277;28;19917;-75
2021/05/04 01:28:37;;;;;;;;;;;18.90;58.70;;;;;;5042305;28;19920;-75
2021/05/04 01:31:03;;;;;;;;;;;18.90;58.70;;;;;;5037356;28;19919;-75
2021/05/04 01:33:28;;;;;;;;;;;18.90;58.70;;;;;;5054397;28;19956;-75
2021/05/04 01:35:54;;;;;;;;;;;18.90;58.70;;;;;;5036629;28;19921;-75
2021/05/04 01:38:19;;;;;;;;;;;18.90;58.70;;;;;;5050463;28;20389;-75
2021/05/04 01:40:45;;;;;;;;;;;18.80;58.70;;;;;;5036295;28;19959;-76
2021/05/04 01:43:10;;;;;;;;;;;18.90;58.70;;;;;;5054232;28;19939;-75
2021/05/04 01:45:36;;;;;;;;;;;18.80;58.70;;;;;;5051519;28;19913;-75
2021/05/04 01:48:01;;;;;;;;;;;18.90;58.70;;;;;;5037860;28;20370;-76
2021/05/04 01:50:27;;;;;;;;;;;18.90;58.60;;;;;;5033522;28;19931;-75
2021/05/04 01:52:52;;;;;;;;;;;18.80;58.70;;;;;;5054710;28;19919;-76
2021/05/04 01:55:18;;;;;;;;;;;18.90;58.60;;;;;;5036104;28;19967;-76
2021/05/04 01:57:44;;;;;;;;;;;18.80;58.70;;;;;;5054395;28;20312;-75
2021/05/04 02:00:09;;;;;;;;;;;18.80;58.70;;;;;;5049797;28;19921;-75
2021/05/04 02:02:35;;;;;;;;;;;18.80;58.70;;;;;;5036214;28;19913;-76
2021/05/04 02:05:01;;;;;;;;;;;18.80;58.70;;;;;;5035016;28;20007;-76
2021/05/04 02:07:26;;;;;;;;;;;18.80;58.70;;;;;;5054087;28;20476;-75
2021/05/04 02:09:52;;;;;;;;;;;18.80;58.70;;;;;;5050458;28;19913;-75
2021/05/04 02:12:18;;;;;;;;;;;18.80;58.60;;;;;;5053030;28;19948;-75
2021/05/04 02:14:43;;;;;;;;;;;18.80;58.60;;;;;;5053918;28;20019;-75
2021/05/04 02:17:09;;;;;;;;;;;18.80;58.60;;;;;;5048880;28;19981;-76
2021/05/04 02:19:37;;;;;;;;;;;18.80;58.60;;;;;;5049788;28;20338;-75
2021/05/04 02:22:03;;;;;;;;;;;18.80;58.60;;;;;;5047753;28;19920;-77
2021/05/04 02:24:28;;;;;;;;;;;18.80;58.70;;;;;;5037959;28;19912;-75
2021/05/04 02:26:54;;;;;;;;;;;18.80;58.60;;;;;;5028596;28;19928;-76
2021/05/04 02:29:19;;;;;;;;;;;18.80;58.60;;;;;;5053596;28;19966;-76
2021/05/04 02:31:45;;;;;;;;;;;18.80;58.60;;;;;;5054926;28;19913;-76
2021/05/04 02:34:11;;;;;;;;;;;18.80;58.60;;;;;;5050631;28;19919;-76
2021/05/04 02:36:36;;;;;;;;;;;18.80;58.60;;;;;;5053174;28;19928;-75
2021/05/04 02:39:03;;;;;;;;;;;18.80;58.60;;;;;;5035421;28;19916;-76
2021/05/04 02:41:29;;;;;;;;;;;18.80;58.60;;;;;;5030488;28;19927;-75
2021/05/04 02:43:54;;;;;;;;;;;18.80;58.60;;;;;;5032580;28;19913;-76
2021/05/04 02:46:20;;;;;;;;;;;18.80;58.60;;;;;;5037191;28;19920;-75
2021/05/04 02:48:46;;;;;;;;;;;18.80;58.60;;;;;;5031474;28;19927;-76
2021/05/04 02:51:11;;;;;;;;;;;18.80;58.60;;;;;;5037750;28;19919;-75
2021/05/04 02:53:37;;;;;;;;;;;18.80;58.60;;;;;;5030276;28;19967;-75
2021/05/04 02:56:04;;;;;;;;;;;18.80;58.60;;;;;;5049261;28;19924;-76
2021/05/04 02:58:29;;;;;;;;;;;18.80;58.60;;;;;;5039955;28;19924;-75
2021/05/04 03:00:56;;;;;;;;;;;18.80;58.60;;;;;;5035020;28;19958;-75
2021/05/04 03:03:22;;;;;;;;;;;18.80;58.60;;;;;;5052967;28;19913;-77
2021/05/04 03:05:47;;;;;;;;;;;18.80;58.60;;;;;;5046395;28;19974;-76
2021/05/04 03:08:13;;;;;;;;;;;18.80;58.60;;;;;;5053952;28;19921;-76
2021/05/04 03:10:38;;;;;;;;;;;18.80;58.60;;;;;;5039124;28;20362;-77
2021/05/04 03:13:04;;;;;;;;;;;18.80;58.60;;;;;;5054249;28;19924;-76
2021/05/04 03:15:29;;;;;;;;;;;18.80;58.50;;;;;;5054210;28;19991;-75
2021/05/04 03:17:55;;;;;;;;;;;18.80;58.50;;;;;;5053041;28;19920;-75
2021/05/04 03:20:21;;;;;;;;;;;18.80;58.50;;;;;;5053073;28;20000;-76
2021/05/04 03:22:46;;;;;;;;;;;18.80;58.50;;;;;;5052299;28;19923;-75
2021/05/04 03:25:12;;;;;;;;;;;18.80;58.60;;;;;;5052684;28;19913;-76
2021/05/04 03:27:37;;;;;;;;;;;18.80;58.50;;;;;;5053379;28;19913;-75
2021/05/04 03:30:04;;;;;;;;;;;18.80;58.60;;;;;;5053666;28;19921;-75
2021/05/04 03:32:29;;;;;;;;;;;18.80;58.50;;;;;;5053214;28;19913;-75
2021/05/04 03:34:54;;;;;;;;;;;18.80;58.50;;;;;;5052720;28;20369;-76
2021/05/04 03:37:20;;;;;;;;;;;18.80;58.50;;;;;;5035698;28;19923;-75
2021/05/04 03:39:46;;;;;;;;;;;18.80;58.60;;;;;;5034116;28;19924;-75
2021/05/04 03:42:11;;;;;;;;;;;18.80;58.50;;;;;;5047221;28;19913;-75
2021/05/04 03:44:37;;;;;;;;;;;18.80;58.50;;;;;;5031021;28;19999;-75
2021/05/04 03:47:02;;;;;;;;;;;18.80;58.50;;;;;;5033674;28;20328;-75
2021/05/04 03:49:28;;;;;;;;;;;18.70;58.50;;;;;;5039792;28;19935;-75
2021/05/04 03:51:53;;;;;;;;;;;18.80;58.50;;;;;;5051474;28;20282;-77
2021/05/04 03:54:19;;;;;;;;;;;18.80;58.50;;;;;;5050195;28;20015;-76
2021/05/04 03:56:44;;;;;;;;;;;18.80;58.50;;;;;;5050820;28;19963;-75
2021/05/04 03:59:10;;;;;;;;;;;18.80;58.50;;;;;;5034570;28;19917;-76
2021/05/04 04:01:36;;;;;;;;;;;18.70;58.50;;;;;;5047036;28;19948;-74
2021/05/04 04:04:02;;;;;;;;;;;18.80;58.50;;;;;;5047356;28;19970;-76
2021/05/04 04:06:27;;;;;;;;;;;18.70;58.50;;;;;;5050265;28;19913;-75
2021/05/04 04:08:53;;;;;;;;;;;18.80;58.50;;;;;;5033276;28;20339;-75
2021/05/04 04:11:18;;;;;;;;;;;18.80;58.50;;;;;;5050961;28;20373;-75
2021/05/04 04:13:44;;;;;;;;;;;18.80;58.50;;;;;;5030568;28;19916;-75
2021/05/04 04:16:10;;;;;;;;;;;18.80;58.40;;;;;;5050431;28;19925;-75
2021/05/04 04:18:38;;;;;;;;;;;18.80;58.40;;;;;;5033153;28;20377;-75
2021/05/04 04:21:04;;;;;;;;;;;18.80;58.50;;;;;;5051963;28;20390;-75
2021/05/04 04:23:29;;;;;;;;;;;18.80;58.40;;;;;;5051167;28;20003;-75
2021/05/04 04:25:55;;;;;;;;;;;18.80;58.40;;;;;;5034289;28;20015;-76
2021/05/04 04:28:21;;;;;;;;;;;18.80;58.40;;;;;;5051569;28;19958;-75
2021/05/04 04:30:46;;;;;;;;;;;18.80;58.40;;;;;;5045282;28;20282;-76
2021/05/04 04:33:12;;;;;;;;;;;18.80;58.40;;;;;;5034063;28;19928;-76
2021/05/04 04:35:37;;;;;;;;;;;18.80;58.40;;;;;;5051606;28;19917;-75
2021/05/04 04:38:03;;;;;;;;;;;18.80;58.30;;;;;;5051444;28;20003;-75
2021/05/04 04:40:28;;;;;;;;;;;18.80;58.30;;;;;;5050862;28;19912;-75
2021/05/04 04:42:54;;;;;;;;;;;18.80;58.30;;;;;;5051427;28;19944;-75
2021/05/04 04:45:19;;;;;;;;;;;18.80;58.20;;;;;;5034439;28;19920;-76
2021/05/04 04:47:45;;;;;;;;;;;18.80;58.30;;;;;;5030990;28;19912;-75
2021/05/04 04:50:10;;;;;;;;;;;18.80;58.20;;;;;;5034045;28;19971;-76
2021/05/04 04:52:36;;;;;;;;;;;18.80;58.20;;;;;;5050028;28;19913;-75
2021/05/04 04:55:02;;;;;;;;;;;18.80;58.20;;;;;;5051729;28;19955;-76
2021/05/04 04:57:27;;;;;;;;;;;18.80;58.20;;;;;;5046286;28;20370;-76
2021/05/04 04:59:53;;;;;;;;;;;18.80;58.10;;;;;;5046720;28;19983;-76
2021/05/04 05:02:18;;;;;;;;;;;18.80;58.10;;;;;;5045051;28;19917;-75
2021/05/04 05:04:45;;;;;;;;;;;18.80;58.10;;;;;;5050548;28;20374;-75
2021/05/04 05:07:10;;;;;;;;;;;18.80;58.10;;;;;;5032149;28;19921;-76
2021/05/04 05:09:36;;;;;;;;;;;18.80;58.10;;;;;;5047958;28;19998;-75
2021/05/04 05:12:05;;;;;;;;;;;18.80;58.10;;;;;;5051790;28;19920;-75
2021/05/04 05:14:33;;;;;;;;;;;18.80;58.00;;;;;;5050278;28;19921;-75
2021/05/04 05:16:59;;;;;;;;;;;18.80;58.00;;;;;;5042088;28;19916;-75
2021/05/04 05:19:25;;;;;;;;;;;18.80;58.00;;;;;;5033771;28;19927;-75
2021/05/04 05:21:50;;;;;;;;;;;18.80;57.90;;;;;;5048223;28;20378;-75
2021/05/04 05:24:17;;;;;;;;;;;18.80;57.90;;;;;;5048939;28;19920;-75
2021/05/04 05:26:43;;;;;;;;;;;18.80;57.90;;;;;;5051701;28;21032;-75
2021/05/04 05:29:08;;;;;;;;;;;18.90;57.80;;;;;;5051173;28;19912;-75
2021/05/04 05:31:36;;;;;;;;;;;18.90;57.80;;;;;;5051466;28;19966;-75
2021/05/04 05:34:02;;;;;;;;;;;18.90;57.80;;;;;;5048836;28;19935;-75
2021/05/04 05:36:27;;;;;;;;;;;18.90;57.70;;;;;;5032620;28;19917;-76
2021/05/04 05:38:53;;;;;;;;;;;18.90;57.70;;;;;;5051182;28;20377;-76
2021/05/04 05:41:18;;;;;;;;;;;18.90;57.70;;;;;;5033568;28;20281;-75
2021/05/04 05:43:44;;;;;;;;;;;18.90;57.60;;;;;;5034536;28;19912;-75
2021/05/04 05:46:09;;;;;;;;;;;18.90;57.60;;;;;;5027418;28;19912;-75
2021/05/04 05:48:35;;;;;;;;;;;18.90;57.60;;;;;;5049170;28;19912;-75
2021/05/04 05:51:00;;;;;;;;;;;18.90;57.50;;;;;;5049861;28;20000;-75
2021/05/04 05:53:26;;;;;;;;;;;19.00;57.50;;;;;;5052429;28;20300;-76
2021/05/04 05:55:51;;;;;;;;;;;19.00;57.40;;;;;;5049342;28;20294;-75
2021/05/04 05:58:17;;;;;;;;;;;19.00;57.40;;;;;;5028565;28;19940;-75
2021/05/04 06:00:42;;;;;;;;;;;19.00;57.30;;;;;;5048709;28;19917;-76
2021/05/04 06:03:08;;;;;;;;;;;19.00;57.20;;;;;;5035029;28;19912;-76
2021/05/04 06:05:34;;;;;;;;;;;19.10;57.10;;;;;;5044181;28;19917;-76
2021/05/04 06:08:00;;;;;;;;;;;19.10;57.00;;;;;;5032546;28;19920;-75
2021/05/04 06:10:25;;;;;;;;;;;19.10;56.90;;;;;;5048381;28;19924;-77
2021/05/04 06:12:55;;;;;;;;;;;19.20;56.90;;;;;;5050820;28;19914;-77
2021/05/04 06:15:20;;;;;;;;;;;19.20;56.80;;;;;;5035460;28;20321;-76
2021/05/04 06:17:46;;;;;;;;;;;19.20;56.80;;;;;;5036441;28;19917;-75
2021/05/04 06:20:12;;;;;;;;;;;19.20;56.80;;;;;;5035895;28;19917;-76
2021/05/04 06:22:37;;;;;;;;;;;19.20;56.80;;;;;;5046057;28;20345;-76
2021/05/04 06:25:03;;;;;;;;;;;19.10;56.80;;;;;;5052637;28;19928;-76
2021/05/04 06:27:28;;;;;;;;;;;19.20;56.80;;;;;;5052813;28;20378;-77
2021/05/04 06:29:55;;;;;;;;;;;19.20;56.80;;;;;;5034700;28;20362;-76
2021/05/04 06:32:24;;;;;;;;;;;19.20;56.80;;;;;;5051449;28;19989;-77
2021/05/04 06:34:50;;;;;;;;;;;19.20;56.80;;;;;;5034729;28;19912;-76
2021/05/04 06:37:15;;;;;;;;;;;19.20;56.70;;;;;;5032406;28;19939;-76
2021/05/04 06:39:41;;;;;;;;;;;19.20;56.70;;;;;;5036144;28;19948;-76
2021/05/04 06:42:06;;;;;;;;;;;19.20;56.60;;;;;;5041350;28;19983;-77
2021/05/04 06:44:32;;;;;;;;;;;19.20;56.60;;;;;;5049871;28;19958;-76
2021/05/04 06:46:57;;;;;;;;;;;19.30;56.60;;;;;;5035055;28;20378;-77
2021/05/04 06:49:23;;;;;;;;;;;19.30;56.60;;;;;;5031451;28;19927;-77
2021/05/04 06:51:48;;;;;;;;;;;19.30;56.50;;;;;;5048055;28;19916;-77
2021/05/04 06:54:14;;;;;;;;;;;19.30;56.50;;;;;;5035538;28;19921;-77
2021/05/04 06:56:39;;;;;;;;;;;19.30;56.40;;;;;;5052528;28;20385;-77
2021/05/04 06:59:06;;;;;;;;;;;19.30;56.40;;;;;;5035857;28;20007;-77
2021/05/04 07:01:33;;;;;;;;;;;19.30;56.40;;;;;;5036192;28;19913;-77
2021/05/04 07:03:58;;;;;;;;;;;19.30;56.30;;;;;;5038055;28;19913;-77
2021/05/04 07:06:24;;;;;;;;;;;19.30;56.40;;;;;;5052596;28;19928;-77
2021/05/04 07:08:49;;;;;;;;;;;19.30;56.30;;;;;;5029889;28;19921;-76
2021/05/04 07:11:15;;;;;;;;;;;19.30;56.30;;;;;;5027053;28;20259;-77
2021/05/04 07:13:41;;;;;;;;;;;19.30;56.20;;;;;;5027761;28;19923;-77
2021/05/04 07:16:07;;;;;;;;;;;19.30;56.20;;;;;;5043273;28;20011;-77
2021/05/04 07:18:34;;;;;;;;;;;19.30;56.10;;;;;;5033151;28;20438;-77
2021/05/04 07:21:03;;;;;;;;;;;19.30;56.10;;;;;;5030415;28;19956;-78
2021/05/04 07:23:29;;;;;;;;;;;19.30;56.10;;;;;;5028352;28;19921;-77
2021/05/04 07:25:54;;;;;;;;;;;19.30;56.20;;;;;;5033271;28;19917;-78
2021/05/04 07:28:20;;;;;;;;;;;19.30;56.10;;;;;;5022812;28;19913;-78
2021/05/04 07:30:45;;;;;;;;;;;19.30;56.10;;;;;;5045198;28;19913;-83
2021/05/04 07:33:16;;;;;;;;;;;19.30;56.10;;;;;;5028683;28;19959;-76
2021/05/04 07:35:41;;;;;;;;;;;19.40;56.10;;;;;;5048669;28;19919;-78
2021/05/04 07:38:07;;;;;;;;;;;19.40;56.00;;;;;;5025897;28;19918;-76
2021/05/04 07:40:32;;;;;;;;;;;19.40;56.00;;;;;;5030760;28;19917;-77
2021/05/04 07:42:58;;;;;;;;;;;19.40;55.90;;;;;;5045522;28;19925;-77
2021/05/04 07:45:23;;;;;;;;;;;19.50;55.90;;;;;;5030224;28;19978;-76
2021/05/04 07:47:55;;;;;;;;;;;19.50;55.70;;;;;;5037154;28;19913;-77
2021/05/04 07:50:21;;;;;;;;;;;19.50;55.40;;;;;;5035289;28;19927;-76
2021/05/04 07:52:46;;;;;;;;;;;19.50;55.30;;;;;;5033364;28;20011;-77
2021/05/04 07:55:12;;;;;;;;;;;19.50;54.90;;;;;;5033241;28;19913;-76
2021/05/04 07:57:37;;;;;;;;;;;19.50;54.70;;;;;;5034465;28;20307;-76
2021/05/04 08:00:04;;;;;;;;;;;19.50;54.50;;;;;;5034906;28;19976;-76
2021/05/04 08:02:29;;;;;;;;;;;19.60;54.20;;;;;;5026266;28;19922;-76
2021/05/04 08:04:55;;;;;;;;;;;19.60;54.00;;;;;;5037020;28;19913;-76
2021/05/04 08:07:20;;;;;;;;;;;19.50;53.90;;;;;;5038170;28;19921;-76
2021/05/04 08:09:46;;;;;;;;;;;19.60;53.50;;;;;;5053311;28;20543;-76
2021/05/04 08:12:11;;;;;;;;;;;19.60;53.50;;;;;;5052280;28;19921;-77
2021/05/04 08:14:37;;;;;;;;;;;19.60;53.40;;;;;;5051127;28;19920;-76
2021/05/04 08:17:03;;;;;;;;;;;19.60;53.30;;;;;;5052922;28;19917;-76
2021/05/04 08:19:28;;;;;;;;;;;19.60;53.30;;;;;;5033052;28;19956;-75
2021/05/04 08:21:54;;;;;;;;;;;19.70;53.00;;;;;;5051245;28;19970;-76
2021/05/04 08:24:19;;;;;;;;;;;19.60;53.00;;;;;;5052245;28;20346;-76
2021/05/04 08:26:45;;;;;;;;;;;19.70;52.80;;;;;;5029608;28;19927;-77
2021/05/04 08:29:11;;;;;;;;;;;19.70;52.80;;;;;;5051105;28;20004;-76
2021/05/04 08:31:37;;;;;;;;;;;19.70;52.80;;;;;;5032525;28;19936;-76
2021/05/04 08:34:03;;;;;;;;;;;19.70;52.90;;;;;;5049854;28;19913;-76
2021/05/04 08:36:30;;;;;;;;;;;19.70;53.00;;;;;;5051876;28;19965;-76
2021/05/04 08:38:58;;;;;;;;;;;19.70;53.10;;;;;;5033611;28;20000;-77
2021/05/04 08:41:25;;;;;;;;;;;19.70;53.10;;;;;;5051312;28;20216;-77
2021/05/04 08:43:52;;;;;;;;;;;19.70;53.20;;;;;;5044950;28;19913;-77
2021/05/04 08:46:20;;;;;;;;;;;19.70;53.20;;;;;;5032921;28;19913;-77
2021/05/04 08:48:49;;;;;;;;;;;19.70;53.20;;;;;;5034230;28;20306;-77
2021/05/04 08:51:15;;;;;;;;;;;19.70;53.20;;;;;;5051154;28;20370;-76
2021/05/04 08:53:41;;;;;;;;;;;19.70;53.20;;;;;;5051385;28;19913;-77
2021/05/04 08:56:08;;;;;;;;;;;19.70;53.20;;;;;;5034573;28;19920;-76
2021/05/04 08:58:34;;;;;;;;;;;19.70;53.20;;;;;;5028602;28;20146;-78
2021/05/04 09:01:02;;;;;;;;;;;19.80;53.20;;;;;;5049034;28;19913;-77
2021/05/04 09:03:45;;;;;;;;;;;19.70;53.20;;;;;;5026966;28;20366;-77
2021/05/04 09:06:23;;;;;;;;;;;19.70;53.30;;;;;;5028140;28;19919;-76
2021/05/04 09:11:20;;;;;;;;;;;19.70;53.30;;;;;;5046721;28;19936;-77
2021/05/04 09:13:48;;;;;;;;;;;19.70;53.30;;;;;;5049879;28;19921;-76
2021/05/04 09:16:28;;;;;;;;;;;19.70;53.40;;;;;;5030769;28;19917;-77
2021/05/04 09:19:08;;;;;;;;;;;19.70;53.40;;;;;;5033140;28;20274;-77
2021/05/04 09:21:37;;;;;;;;;;;19.80;53.40;;;;;;5028283;28;19912;-76
2021/05/04 09:24:21;;;;;;;;;;;19.70;53.50;;;;;;5032059;28;19913;-76
2021/05/04 09:26:47;;;;;;;;;;;19.70;53.50;;;;;;5045897;28;20281;-76
2021/05/04 09:29:12;;;;;;;;;;;19.70;53.50;;;;;;5046742;28;20131;-76
2021/05/04 09:31:43;;;;;;;;;;;19.70;53.60;;;;;;5046201;28;19920;-76
2021/05/04 09:34:12;;;;;;;;;;;19.70;53.60;;;;;;5050860;28;19958;-80
2021/05/04 09:36:38;;;;;;;;;;;19.70;53.60;;;;;;5028902;28;19917;-76
2021/05/04 09:39:04;;;;;;;;;;;19.70;53.60;;;;;;5049891;28;19916;-76
2021/05/04 09:41:30;;;;;;;;;;;19.70;53.60;;;;;;5048201;28;20035;-76
2021/05/04 09:43:56;;;;;;;;;;;19.70;53.70;;;;;;5051150;28;20318;-77
2021/05/04 09:46:43;;;;;;;;;;;19.70;53.60;;;;;;5049711;28;19912;-76
2021/05/04 09:49:24;;;;;;;;;;;19.70;53.60;;;;;;5050303;28;19927;-76
2021/05/04 09:51:50;;;;;;;;;;;19.70;53.50;;;;;;5049250;28;20631;-76
2021/05/04 09:54:28;;;;;;;;;;;19.70;53.50;;;;;;5033151;28;20003;-76
2021/05/04 09:56:55;;;;;;;;;;;19.70;53.50;;;;;;5033556;28;19920;-78
2021/05/04 09:59:22;;;;;;;;;;;19.80;53.50;;;;;;5053864;28;20011;-76
2021/05/04 10:01:48;;;;;;;;;;;19.70;53.50;;;;;;5033928;28;19960;-77
2021/05/04 10:04:14;;;;;;;;;;;19.80;53.50;;;;;;5034429;28;19913;-76
2021/05/04 10:06:40;;;;;;;;;;;19.80;53.50;;;;;;5054281;28;19920;-76
2021/05/04 10:09:06;;;;;;;;;;;19.80;53.50;;;;;;5052298;28;19920;-76
2021/05/04 10:11:31;;;;;;;;;;;19.80;53.50;;;;;;5052535;28;19921;-76
2021/05/04 10:13:58;;;;;;;;;;;19.80;53.50;;;;;;5052341;28;19912;-76
2021/05/04 10:16:27;;;;;;;;;;;19.80;53.50;;;;;;5055369;28;19921;-77
2021/05/04 10:18:57;;;;;;;;;;;19.80;53.50;;;;;;5029309;28;19916;-77
2021/05/04 10:21:23;;;;;;;;;;;19.80;53.50;;;;;;5053214;28;20055;-80
2021/05/04 10:23:49;;;;;;;;;;;19.80;53.40;;;;;;5054805;28;20457;-76
2021/05/04 10:26:17;;;;;;;;;;;19.80;53.40;;;;;;5027636;28;20099;-77
2021/05/04 10:28:44;;;;;;;;;;;19.80;53.50;;;;;;5036150;28;19966;-76
2021/05/04 10:31:14;;;;;;;;;;;19.80;53.50;;;;;;5047687;28;19913;-76
2021/05/04 10:33:41;;;;;;;;;;;19.80;53.50;;;;;;5048332;28;20295;-77
2021/05/04 10:36:26;;;;;;;;;;;19.80;53.50;;;;;;5047620;28;19913;-76
2021/05/04 10:38:53;;;;;;;;;;;19.80;53.50;;;;;;5049704;28;19921;-76
2021/05/04 10:41:20;;;;;;;;;;;19.80;53.50;;;;;;5054512;28;19966;-78
2021/05/04 10:43:45;;;;;;;;;;;19.80;53.50;;;;;;5052074;28;19942;-76
2021/05/04 10:46:30;;;;;;;;;;;19.80;53.60;;;;;;5053389;28;19912;-76
2021/05/04 10:48:56;;;;;;;;;;;19.80;53.60;;;;;;5049601;28;19913;-77
2021/05/04 10:51:40;;;;;;;;;;;19.80;53.60;;;;;;5039965;28;20007;-76
2021/05/04 10:54:05;;;;;;;;;;;19.80;53.60;;;;;;5054786;28;19919;-76
2021/05/04 10:56:31;;;;;;;;;;;19.80;53.60;;;;;;5035507;28;20340;-76
2021/05/04 10:58:56;;;;;;;;;;;19.80;53.60;;;;;;5051410;28;20492;-76
2021/05/04 11:01:22;;;;;;;;;;;19.80;53.50;;;;;;5035187;28;19921;-77
2021/05/04 11:03:49;;;;;;;;;;;19.90;53.50;;;;;;5038100;28;19921;-77
2021/05/04 11:06:35;;;;;;;;;;;19.90;53.40;;;;;;5054814;28;20019;-76
2021/05/04 11:09:04;;;;;;;;;;;19.90;53.40;;;;;;5032072;28;20007;-76
2021/05/04 11:11:42;;;;;;;;;;;19.90;53.40;;;;;;5052655;28;19936;-77
2021/05/04 11:14:18;;;;;;;;;;;19.90;53.30;;;;;;5048728;28;20312;-76
2021/05/04 11:16:45;;;;;;;;;;;19.90;53.40;;;;;;5049181;28;19921;-77
2021/05/04 11:19:28;;;;;;;;;;;19.90;53.40;;;;;;5029735;28;20316;-77
2021/05/04 11:21:59;;;;;;;;;;;19.90;53.40;;;;;;5048733;28;19916;-78
2021/05/04 11:24:37;;;;;;;;;;;19.90;53.40;;;;;;5047369;28;20568;-78
2021/05/04 11:27:06;;;;;;;;;;;19.90;53.30;;;;;;5053236;28;19913;-76
2021/05/04 11:29:31;;;;;;;;;;;19.90;53.20;;;;;;5037171;28;20388;-77
2021/05/04 11:32:09;;;;;;;;;;;20.00;53.20;;;;;;5031673;28;19913;-76
2021/05/04 11:34:43;;;;;;;;;;;20.00;53.10;;;;;;5045842;28;19920;-76
2021/05/04 11:37:13;;;;;;;;;;;20.00;53.10;;;;;;5047988;28;20374;-76
2021/05/04 11:39:59;;;;;;;;;;;19.90;53.10;;;;;;5047219;28;19925;-76
2021/05/04 11:42:31;;;;;;;;;;;20.00;53.00;;;;;;5045958;28;19969;-78
2021/05/04 11:45:05;;;;;;;;;;;20.00;53.00;;;;;;5049401;28;19913;-76
2021/05/04 11:47:31;;;;;;;;;;;20.00;52.90;;;;;;5046093;28;19913;-77
2021/05/04 11:50:09;;;;;;;;;;;20.10;52.90;;;;;;5028131;28;19969;-76
2021/05/04 11:52:35;;;;;;;;;;;20.10;52.80;;;;;;5054048;28;20277;-78
2021/05/04 11:55:13;;;;;;;;;;;20.10;52.80;;;;;;5041697;28;19913;-76
2021/05/04 11:57:39;;;;;;;;;;;20.10;52.70;;;;;;5051387;28;20262;-76
2021/05/04 12:00:08;;;;;;;;;;;20.10;52.70;;;;;;5053589;28;19928;-76
2021/05/04 12:02:34;;;;;;;;;;;20.10;52.70;;;;;;5047939;28;19913;-76
2021/05/04 12:05:00;;;;;;;;;;;20.10;52.80;;;;;;5033247;28;19920;-76
2021/05/04 12:07:33;;;;;;;;;;;20.10;52.80;;;;;;5050801;28;19928;-76
2021/05/04 12:09:58;;;;;;;;;;;20.10;52.70;;;;;;5049586;28;19912;-76
2021/05/04 12:12:24;;;;;;;;;;;20.10;52.80;;;;;;5046042;28;20362;-77
2021/05/04 12:14:59;;;;;;;;;;;20.10;52.80;;;;;;5052987;28;19935;-76
2021/05/04 12:17:26;;;;;;;;;;;20.20;52.80;;;;;;5031371;28;20439;-77
2021/05/04 12:19:52;;;;;;;;;;;20.20;52.70;;;;;;5051265;28;20438;-75
2021/05/04 12:22:17;;;;;;;;;;;20.20;52.80;;;;;;5051514;28;20003;-76
2021/05/04 12:24:43;;;;;;;;;;;20.20;52.80;;;;;;5053049;28;19913;-78
2021/05/04 12:27:08;;;;;;;;;;;20.20;52.80;;;;;;5055363;28;20011;-76
2021/05/04 12:29:34;;;;;;;;;;;20.20;52.90;;;;;;5052308;28;19913;-76
2021/05/04 12:31:59;;;;;;;;;;;20.20;52.90;;;;;;5052572;28;19916;-76
2021/05/04 12:34:25;;;;;;;;;;;20.20;53.00;;;;;;5050318;28;19920;-81
2021/05/04 12:36:56;;;;;;;;;;;20.20;53.00;;;;;;5052194;28;20414;-79
2021/05/04 12:39:30;;;;;;;;;;;20.10;53.10;;;;;;5026030;28;20267;-79
2021/05/04 12:41:57;;;;;;;;;;;20.10;53.00;;;;;;5043876;28;19944;-80
2021/05/04 12:44:26;;;;;;;;;;;20.10;53.10;;;;;;5028093;28;19920;-82
2021/05/04 12:46:53;;;;;;;;;;;20.10;53.10;;;;;;5046608;28;20015;-78
2021/05/04 12:49:19;;;;;;;;;;;20.10;53.10;;;;;;5044062;28;20682;-79
2021/05/04 12:51:46;;;;;;;;;;;20.10;53.10;;;;;;5030071;28;19968;-79
2021/05/04 12:54:15;;;;;;;;;;;20.20;53.10;;;;;;5029546;28;20219;-80
2021/05/04 12:56:40;;;;;;;;;;;20.10;53.10;;;;;;5045317;28;20006;-78
2021/05/04 12:59:07;;;;;;;;;;;20.20;53.10;;;;;;5030635;28;19920;-79
2021/05/04 13:02:06;;;;;;;;;;;20.10;53.20;;;;;;5048706;28;20349;-80
2021/05/04 13:04:50;;;;;;;;;;;20.20;53.20;;;;;;5012982;28;19920;-79
2021/05/04 13:10:25;;;;;;;;;;;20.10;53.20;;;;;;5051968;28;19913;-79
2021/05/04 13:13:10;;;;;;;;;;;20.10;53.20;;;;;;5040276;28;19995;-79
2021/05/04 13:32:07;;;;;;;;;;;20.10;53.30;;;;;;5045766;28;19913;-78
2021/05/04 13:36:59;;;;;;;;;;;20.10;53.30;;;;;;5047950;28;20476;-78
2021/05/04 13:47:29;;;;;;;;;;;20.10;53.30;;;;;;5047770;28;20381;-78
2021/05/04 13:47:34;;;;;;;;;;;20.10;53.40;;;;;;5045402;28;19912;-78
2021/05/04 13:50:01;;;;;;;;;;;20.10;53.40;;;;;;5031899;28;19913;-78
2021/05/04 13:52:27;;;;;;;;;;;20.10;53.40;;;;;;5031504;28;20361;-77
2021/05/04 13:54:53;;;;;;;;;;;20.10;53.40;;;;;;5045286;28;19912;-78
2021/05/04 13:57:19;;;;;;;;;;;20.10;53.40;;;;;;5045865;28;19921;-76
2021/05/04 13:59:54;;;;;;;;;;;20.10;53.40;;;;;;5028965;28;20438;-81
2021/05/04 14:27:09;;;;;;;;;;;20.00;53.80;;;;;;5003834;28;19956;-79
2021/05/04 14:29:35;;;;;;;;;;;20.00;53.80;;;;;;5003957;28;20371;-79
2021/05/04 14:32:01;;;;;;;;;;;20.00;53.80;;;;;;4988349;28;19920;-80
2021/05/04 14:34:34;;;;;;;;;;;20.00;53.80;;;;;;5006947;28;19917;-79
2021/05/04 14:37:13;;;;;;;;;;;20.00;53.80;;;;;;5045170;28;19931;-79
2021/05/04 15:01:06;;;;;;;;;;;19.90;54.20;;;;;;5050718;28;19920;-78
2021/05/04 15:03:32;;;;;;;;;;;19.90;54.20;;;;;;5032981;28;19940;-78
2021/05/04 15:05:58;;;;;;;;;;;19.90;54.20;;;;;;5054875;28;19919;-78
2021/05/04 15:08:24;;;;;;;;;;;19.90;54.20;;;;;;5050598;28;19921;-80
2021/05/04 15:10:50;;;;;;;;;;;19.80;54.30;;;;;;5051602;28;20286;-78
2021/05/04 15:13:20;;;;;;;;;;;19.80;54.30;;;;;;5036257;28;19916;-78
2021/05/04 15:15:58;;;;;;;;;;;19.80;54.40;;;;;;5046770;28;20004;-79
2021/05/04 15:21:15;;;;;;;;;;;19.80;54.40;;;;;;5053474;28;19920;-80
2021/05/04 15:23:40;;;;;;;;;;;19.80;54.40;;;;;;5049233;28;19920;-78
2021/05/04 15:26:06;;;;;;;;;;;19.80;54.40;;;;;;5023157;28;19913;-81
2021/05/04 15:28:31;;;;;;;;;;;19.80;54.40;;;;;;5051760;28;19913;-78
2021/05/04 15:30:57;;;;;;;;;;;19.80;54.50;;;;;;5033499;28;19913;-79
2021/05/04 15:33:26;;;;;;;;;;;19.80;54.50;;;;;;5033830;28;20003;-79
2021/05/04 15:35:52;;;;;;;;;;;19.80;54.60;;;;;;5047615;28;19936;-78